createdAt,value
2022-10-31T00:02:20.556Z,101130.78
2022-10-31T00:04:46.828Z,101134.41
2022-10-31T00:07:13.053Z,101137.00
2022-10-31T00:09:39.271Z,101129.97
2022-10-31T00:12:05.519Z,101132.69
2022-10-31T00:14:31.755Z,101131.03
2022-10-31T00:16:57.938Z,101129.41
2022-10-31T00:19:24.157Z,101127.72
2022-10-31T00:21:50.358Z,101126.00
2022-10-31T00:24:16.556Z,101126.06
2022-10-31T00:26:42.807Z,101131.34
2022-10-31T00:29:08.996Z,101125.31
2022-10-31T00:31:35.246Z,101125.31
2022-10-31T00:34:01.468Z,101130.47
2022-10-31T00:36:27.696Z,101130.41
2022-10-31T00:38:53.922Z,101129.66
2022-10-31T00:41:20.133Z,101140.09
2022-10-31T00:43:47.016Z,101134.91
2022-10-31T00:46:13.232Z,101134.00
2022-10-31T00:48:39.425Z,101132.28
2022-10-31T00:51:05.656Z,101138.31
2022-10-31T00:53:31.846Z,101146.19
2022-10-31T00:55:58.097Z,101142.97
2022-10-31T00:58:24.301Z,101142.09
2022-10-31T01:00:51.904Z,101140.34
2022-10-31T01:03:18.218Z,101143.22
2022-10-31T01:05:44.423Z,101143.97
2022-10-31T01:08:10.633Z,101150.81
2022-10-31T01:10:36.865Z,101149.19
2022-10-31T01:13:03.214Z,101149.25
2022-10-31T01:15:29.460Z,101149.31
2022-10-31T01:17:55.836Z,101150.84
2022-10-31T01:20:22.144Z,101149.50
2022-10-31T01:22:48.378Z,101153.91
2022-10-31T01:25:14.632Z,101149.81
2022-10-31T01:27:40.875Z,101152.59
2022-10-31T01:30:07.089Z,101151.00
2022-10-31T01:32:33.372Z,101157.19
2022-10-31T01:34:59.549Z,101160.81
2022-10-31T01:37:25.774Z,101155.69
2022-10-31T01:39:52.312Z,101154.09
2022-10-31T01:42:18.495Z,101150.75
2022-10-31T01:44:44.748Z,101150.81
2022-10-31T01:47:10.934Z,101148.19
2022-10-31T01:49:37.127Z,101146.59
2022-10-31T01:52:03.378Z,101143.16
2022-10-31T01:54:29.602Z,101140.56
2022-10-31T01:56:55.880Z,101143.09
2022-10-31T01:59:22.136Z,101145.78
2022-10-31T02:01:48.520Z,101140.56
2022-10-31T02:04:14.873Z,101142.41
2022-10-31T02:06:41.074Z,101142.41
2022-10-31T02:09:07.306Z,101145.88
2022-10-31T02:11:33.547Z,101147.69
2022-10-31T02:13:59.758Z,101140.78
2022-10-31T02:16:25.952Z,101141.72
2022-10-31T02:18:52.189Z,101139.97
2022-10-31T02:21:18.407Z,101134.78
2022-10-31T02:23:47.828Z,101138.28
2022-10-31T02:26:16.617Z,101130.53
2022-10-31T02:28:42.831Z,101136.69
2022-10-31T02:31:09.102Z,101133.97
2022-10-31T02:33:35.304Z,101126.25
2022-10-31T02:36:01.534Z,101126.25
2022-10-31T02:38:27.749Z,101128.03
2022-10-31T02:40:53.921Z,101122.91
2022-10-31T02:43:20.114Z,101125.63
2022-10-31T02:45:46.384Z,101120.50
2022-10-31T02:48:12.645Z,101127.59
2022-10-31T02:50:38.828Z,101120.69
2022-10-31T02:53:05.017Z,101128.53
2022-10-31T02:55:31.267Z,101125.09
2022-10-31T02:57:57.835Z,101113.81
2022-10-31T03:00:24.325Z,101121.69
2022-10-31T03:02:50.552Z,101124.34
2022-10-31T03:05:16.792Z,101123.50
2022-10-31T03:07:43.040Z,101117.41
2022-10-31T03:10:09.249Z,101122.63
2022-10-31T03:12:35.516Z,101121.84
2022-10-31T03:15:01.733Z,101130.59
2022-10-31T03:17:28.089Z,101121.25
2022-10-31T03:19:54.318Z,101117.78
2022-10-31T03:22:20.533Z,101129.09
2022-10-31T03:24:46.734Z,101129.97
2022-10-31T03:27:12.980Z,101130.78
2022-10-31T03:29:39.189Z,101125.66
2022-10-31T03:32:05.391Z,101127.47
2022-10-31T03:34:31.656Z,101126.72
2022-10-31T03:36:57.887Z,101123.34
2022-10-31T03:39:24.053Z,101125.94
2022-10-31T03:41:50.371Z,101121.06
2022-10-31T03:44:16.583Z,101127.91
2022-10-31T03:46:42.740Z,101123.56
2022-10-31T03:49:08.919Z,101121.19
2022-10-31T03:51:35.124Z,101125.56
2022-10-31T03:54:01.323Z,101128.06
2022-10-31T03:56:27.523Z,101121.09
2022-10-31T03:58:53.700Z,101124.66
2022-10-31T04:01:19.953Z,101120.31
2022-10-31T04:03:46.267Z,101123.72
2022-10-31T04:06:12.592Z,101117.69
2022-10-31T04:08:38.807Z,101116.84
2022-10-31T04:11:04.990Z,101113.31
2022-10-31T04:13:31.137Z,101113.28
2022-10-31T04:15:57.321Z,101115.03
2022-10-31T04:18:23.536Z,101122.91
2022-10-31T04:20:49.701Z,101118.56
2022-10-31T04:23:15.934Z,101122.84
2022-10-31T04:25:42.137Z,101123.66
2022-10-31T04:28:08.510Z,101116.78
2022-10-31T04:30:34.719Z,101120.25
2022-10-31T04:33:01.173Z,101110.72
2022-10-31T04:35:27.655Z,101114.22
2022-10-31T04:37:53.820Z,101112.53
2022-10-31T04:40:19.969Z,101117.88
2022-10-31T04:42:46.140Z,101110.88
2022-10-31T04:45:15.497Z,101111.03
2022-10-31T04:47:44.643Z,101117.09
2022-10-31T04:50:10.803Z,101114.56
2022-10-31T04:52:36.929Z,101116.50
2022-10-31T04:55:03.099Z,101121.97
2022-10-31T04:57:29.226Z,101118.75
2022-10-31T04:59:55.372Z,101135.41
2022-10-31T05:02:21.578Z,101132.25
2022-10-31T05:04:47.732Z,101127.16
2022-10-31T05:07:13.885Z,101130.66
2022-10-31T05:09:40.053Z,101131.63
2022-10-31T05:12:06.215Z,101131.72
2022-10-31T05:14:32.381Z,101131.78
2022-10-31T05:16:58.573Z,101136.94
2022-10-31T05:19:24.763Z,101131.13
2022-10-31T05:21:50.952Z,101126.00
2022-10-31T05:24:17.106Z,101127.78
2022-10-31T05:26:43.235Z,101127.97
2022-10-31T05:29:09.399Z,101110.66
2022-10-31T05:31:35.518Z,101115.91
2022-10-31T05:34:01.673Z,101107.31
2022-10-31T05:36:27.834Z,101112.47
2022-10-31T05:38:53.972Z,101115.09
2022-10-31T05:41:20.111Z,101110.75
2022-10-31T05:43:46.264Z,101116.81
2022-10-31T05:46:12.380Z,101118.53
2022-10-31T05:48:38.581Z,101122.88
2022-10-31T05:51:04.726Z,101116.00
2022-10-31T05:53:30.851Z,101113.38
2022-10-31T05:55:56.979Z,101107.38
2022-10-31T05:58:23.130Z,101110.97
2022-10-31T06:00:49.277Z,101104.88
2022-10-31T06:03:15.439Z,101102.31
2022-10-31T06:05:41.584Z,101108.38
2022-10-31T06:08:07.771Z,101116.13
2022-10-31T06:10:33.920Z,101119.56
2022-10-31T06:13:00.073Z,101118.72
2022-10-31T06:15:26.256Z,101115.22
2022-10-31T06:17:52.406Z,101121.28
2022-10-31T06:20:19.656Z,101122.09
2022-10-31T06:22:46.003Z,101119.56
2022-10-31T06:25:12.165Z,101123.75
2022-10-31T06:27:38.331Z,101116.81
2022-10-31T06:30:04.463Z,101121.88
2022-10-31T06:32:30.613Z,101121.69
2022-10-31T06:34:56.761Z,101117.19
2022-10-31T06:37:22.928Z,101120.59
2022-10-31T06:39:49.105Z,101118.00
2022-10-31T06:42:15.281Z,101110.81
2022-10-31T06:44:41.449Z,101114.84
2022-10-31T06:47:08.215Z,101119.75
2022-10-31T06:49:34.418Z,101117.66
2022-10-31T06:52:00.571Z,101114.66
2022-10-31T06:54:26.758Z,101114.28
2022-10-31T06:56:52.959Z,101108.75
2022-10-31T06:59:19.111Z,101119.69
2022-10-31T07:01:45.431Z,101121.03
2022-10-31T07:04:11.630Z,101127.63
2022-10-31T07:06:37.840Z,101122.75
2022-10-31T07:09:04.019Z,101114.44
2022-10-31T07:11:30.170Z,101114.75
2022-10-31T07:13:56.345Z,101104.69
2022-10-31T07:16:22.570Z,101109.56
2022-10-31T07:18:48.724Z,101116.13
2022-10-31T07:21:14.859Z,101111.59
2022-10-31T07:23:41.033Z,101108.66
2022-10-31T07:26:07.876Z,101115.34
2022-10-31T07:28:34.039Z,101111.50
2022-10-31T07:31:00.225Z,101117.25
2022-10-31T07:33:26.390Z,101111.53
2022-10-31T07:35:52.675Z,101103.34
2022-10-31T07:38:18.840Z,101101.94
2022-10-31T07:40:45.011Z,101101.63
2022-10-31T07:43:14.110Z,101101.09
2022-10-31T07:45:40.867Z,101101.66
2022-10-31T07:48:06.997Z,101115.97
2022-10-31T07:50:33.161Z,101114.59
2022-10-31T07:52:59.356Z,101114.03
2022-10-31T07:55:25.643Z,101109.88
2022-10-31T07:57:51.871Z,101113.09
2022-10-31T08:00:18.033Z,101112.28
2022-10-31T08:02:44.239Z,101111.94
2022-10-31T08:05:10.401Z,101108.28
2022-10-31T08:07:37.982Z,101108.16
2022-10-31T08:10:04.191Z,101110.50
2022-10-31T08:12:30.320Z,101102.63
2022-10-31T08:14:56.503Z,101104.16
2022-10-31T08:17:22.672Z,101105.94
2022-10-31T08:19:48.849Z,101106.47
2022-10-31T08:22:15.000Z,101095.00
2022-10-31T08:24:41.268Z,101097.31
2022-10-31T08:27:07.593Z,101093.56
2022-10-31T08:29:33.740Z,101081.41
2022-10-31T08:31:59.946Z,101079.88
2022-10-31T08:34:26.135Z,101090.81
2022-10-31T08:36:52.466Z,101087.28
2022-10-31T08:39:18.675Z,101085.59
2022-10-31T08:41:44.877Z,101076.97
2022-10-31T08:44:11.069Z,101075.50
2022-10-31T08:46:37.434Z,101078.94
2022-10-31T08:49:03.590Z,101075.94
2022-10-31T08:51:29.784Z,101078.75
2022-10-31T08:53:55.937Z,101077.56
2022-10-31T08:56:22.109Z,101085.69
2022-10-31T08:58:49.275Z,101081.66
2022-10-31T09:01:15.474Z,101071.59
2022-10-31T09:03:41.676Z,101069.59
2022-10-31T09:06:07.918Z,101066.06
2022-10-31T09:08:34.184Z,101063.63
2022-10-31T09:11:00.328Z,101064.47
2022-10-31T09:13:28.294Z,101070.13
2022-10-31T09:15:54.598Z,101063.09
2022-10-31T09:18:20.762Z,101071.66
2022-10-31T09:20:46.916Z,101065.25
2022-10-31T09:23:13.047Z,101069.31
2022-10-31T09:25:39.212Z,101075.16
2022-10-31T09:28:05.334Z,101069.81
2022-10-31T09:30:31.501Z,101072.81
2022-10-31T09:32:57.630Z,101067.94
2022-10-31T09:35:25.788Z,101071.06
2022-10-31T09:37:52.208Z,101071.59
2022-10-31T09:40:18.346Z,101066.88
2022-10-31T09:42:44.527Z,101061.97
2022-10-31T09:45:10.657Z,101064.94
2022-10-31T09:47:36.814Z,101059.81
2022-10-31T09:50:03.008Z,101060.25
2022-10-31T09:52:29.112Z,101060.88
2022-10-31T09:54:55.274Z,101055.78
2022-10-31T09:57:21.402Z,101048.38
2022-10-31T09:59:47.615Z,101051.00
2022-10-31T10:02:13.827Z,101047.56
2022-10-31T10:04:42.426Z,101047.75
2022-10-31T10:07:08.560Z,101049.66
2022-10-31T10:09:34.729Z,101042.38
2022-10-31T10:12:00.914Z,101036.22
2022-10-31T10:14:27.038Z,101038.16
2022-10-31T10:16:53.216Z,101032.34
2022-10-31T10:19:19.361Z,101035.06
2022-10-31T10:21:45.483Z,101029.03
2022-10-31T10:24:11.648Z,101020.28
2022-10-31T10:26:37.855Z,101020.19
2022-10-31T10:29:03.994Z,101026.31
2022-10-31T10:31:30.147Z,101025.97
2022-10-31T10:33:56.273Z,101023.00
2022-10-31T10:36:22.409Z,101020.91
2022-10-31T10:38:48.548Z,101014.91
2022-10-31T10:41:14.713Z,101014.78
2022-10-31T10:43:40.994Z,101006.56
2022-10-31T10:46:09.323Z,101008.16
2022-10-31T10:48:37.973Z,100996.16
2022-10-31T10:51:04.122Z,100986.44
2022-10-31T10:53:30.237Z,100985.38
2022-10-31T10:55:56.569Z,100986.44
2022-10-31T10:58:22.714Z,100984.91
2022-10-31T11:00:48.997Z,100980.09
2022-10-31T11:03:15.219Z,100982.09
2022-10-31T11:05:41.385Z,100966.91
2022-10-31T11:08:07.511Z,100978.56
2022-10-31T11:10:33.685Z,100968.19
2022-10-31T11:13:00.098Z,100957.56
2022-10-31T11:15:26.369Z,100961.47
2022-10-31T11:17:52.515Z,100949.41
2022-10-31T11:20:19.325Z,100942.94
2022-10-31T11:22:45.659Z,100944.53
2022-10-31T11:25:11.805Z,100939.16
2022-10-31T11:27:37.952Z,100938.50
2022-10-31T11:30:04.128Z,100938.91
2022-10-31T11:32:30.283Z,100933.69
2022-10-31T11:34:56.421Z,100918.28
2022-10-31T11:37:22.604Z,100923.28
2022-10-31T11:39:48.790Z,100926.84
2022-10-31T11:42:14.927Z,100928.41
2022-10-31T11:44:41.092Z,100926.25
2022-10-31T11:47:07.777Z,100912.22
2022-10-31T11:49:33.896Z,100912.00
2022-10-31T11:52:00.094Z,100897.63
2022-10-31T11:54:26.312Z,100903.34
2022-10-31T11:56:52.462Z,100894.84
2022-10-31T11:59:18.634Z,100880.91
2022-10-31T12:01:45.289Z,100870.06
2022-10-31T12:04:11.622Z,100876.34
2022-10-31T12:06:37.798Z,100883.03
2022-10-31T12:09:03.957Z,100881.66
2022-10-31T12:11:30.095Z,100881.75
2022-10-31T12:14:01.191Z,100878.25
2022-10-31T12:16:29.751Z,100873.03
2022-10-31T12:18:55.891Z,100876.47
2022-10-31T12:21:22.012Z,100877.59
2022-10-31T12:23:48.162Z,100875.03
2022-10-31T12:26:14.334Z,100877.88
2022-10-31T12:28:44.851Z,100880.94
2022-10-31T12:31:14.163Z,100880.94
2022-10-31T12:33:40.294Z,100878.47
2022-10-31T12:36:08.564Z,100876.78
2022-10-31T12:38:37.226Z,100864.19
2022-10-31T12:41:03.390Z,100860.28
2022-10-31T12:43:29.545Z,100855.56
2022-10-31T12:45:55.714Z,100853.34
2022-10-31T12:48:21.909Z,100858.63
2022-10-31T12:50:48.162Z,100842.91
2022-10-31T12:53:14.382Z,100830.84
2022-10-31T12:55:40.606Z,100820.59
2022-10-31T12:58:06.813Z,100813.44
2022-10-31T13:00:33.018Z,100809.63
2022-10-31T13:02:59.332Z,100810.84
2022-10-31T13:05:25.589Z,100800.13
2022-10-31T13:07:51.846Z,100797.25
2022-10-31T13:10:18.040Z,100788.34
2022-10-31T13:12:44.270Z,100772.91
2022-10-31T13:15:10.530Z,100765.41
2022-10-31T13:17:37.125Z,100760.84
2022-10-31T13:20:03.340Z,100752.28
2022-10-31T13:22:29.556Z,100758.47
2022-10-31T13:24:55.750Z,100763.47
2022-10-31T13:27:21.953Z,100762.44
2022-10-31T13:29:48.273Z,100755.94
2022-10-31T13:32:14.488Z,100755.19
2022-10-31T13:34:40.737Z,100755.69
2022-10-31T13:37:06.993Z,100752.81
2022-10-31T13:39:33.265Z,100736.94
2022-10-31T13:41:59.486Z,100748.16
2022-10-31T13:44:25.869Z,100753.63
2022-10-31T13:46:52.107Z,100763.91
2022-10-31T13:49:18.350Z,100767.19
2022-10-31T13:51:44.538Z,100771.34
2022-10-31T13:54:10.754Z,100761.63
2022-10-31T13:56:37.033Z,100775.13
2022-10-31T13:59:03.241Z,100779.41
2022-10-31T14:01:29.624Z,100768.69
2022-10-31T14:04:10.898Z,100762.13
2022-10-31T14:06:37.657Z,100764.75
2022-10-31T14:09:03.926Z,100761.16
2022-10-31T14:11:34.481Z,100756.69
2022-10-31T14:14:03.464Z,100762.47
2022-10-31T14:16:29.673Z,100762.00
2022-10-31T14:18:55.923Z,100768.09
2022-10-31T14:21:22.182Z,100766.19
2022-10-31T14:23:50.851Z,100761.44
2022-10-31T14:26:20.205Z,100753.13
2022-10-31T14:28:46.438Z,100745.69
2022-10-31T14:31:12.640Z,100732.06
2022-10-31T14:33:38.819Z,100733.56
2022-10-31T14:36:08.629Z,100742.03
2022-10-31T14:38:34.811Z,100735.44
2022-10-31T14:41:00.988Z,100731.03
2022-10-31T14:43:27.191Z,100727.94
2022-10-31T14:45:56.481Z,100724.53
2022-10-31T14:48:22.840Z,100720.75
2022-10-31T14:50:49.050Z,100733.19
2022-10-31T14:53:15.284Z,100726.47
2022-10-31T14:55:41.480Z,100725.00
2022-10-31T14:58:07.708Z,100726.44
2022-10-31T15:00:33.893Z,100749.13
2022-10-31T15:03:00.470Z,100755.06
2022-10-31T15:05:26.908Z,100734.09
2022-10-31T15:07:53.145Z,100730.91
2022-10-31T15:10:19.387Z,100739.03
2022-10-31T15:12:45.614Z,100736.69
2022-10-31T15:15:11.826Z,100724.59
2022-10-31T15:17:38.051Z,100711.50
2022-10-31T15:20:04.289Z,100712.56
2022-10-31T15:22:30.467Z,100706.88
2022-10-31T15:24:56.685Z,100698.09
2022-10-31T15:27:22.869Z,100687.03
2022-10-31T15:29:49.126Z,100691.19
2022-10-31T15:32:15.331Z,100699.09
2022-10-31T15:34:41.497Z,100687.81
2022-10-31T15:37:07.720Z,100681.78
2022-10-31T15:39:33.909Z,100675.78
2022-10-31T15:42:00.144Z,100667.69
2022-10-31T15:44:26.357Z,100652.41
2022-10-31T15:46:52.538Z,100634.16
2022-10-31T15:49:18.764Z,100636.91
2022-10-31T15:51:45.865Z,100646.72
2022-10-31T15:54:14.465Z,100643.44
2022-10-31T15:56:40.738Z,100635.97
2022-10-31T15:59:06.940Z,100623.28
2022-10-31T16:01:33.264Z,100616.13
2022-10-31T16:03:59.664Z,100608.34
2022-10-31T16:06:25.933Z,100600.88
2022-10-31T16:08:52.139Z,100587.47
2022-10-31T16:11:18.345Z,100572.16
2022-10-31T16:13:44.565Z,100561.66
2022-10-31T16:16:33.680Z,100567.78
2022-10-31T16:18:57.001Z,100581.50
2022-10-31T16:21:23.316Z,100570.66
2022-10-31T16:23:49.533Z,100564.34
2022-10-31T16:26:15.815Z,100565.69
2022-10-31T16:28:44.224Z,100574.94
2022-10-31T16:31:14.276Z,100571.13
2022-10-31T16:33:40.505Z,100599.97
2022-10-31T16:36:30.073Z,100622.47
2022-10-31T16:38:52.950Z,100635.63
2022-10-31T16:41:19.202Z,100638.09
2022-10-31T16:43:51.482Z,100641.50
2022-10-31T16:46:18.601Z,100648.41
2022-10-31T16:48:44.833Z,100650.63
2022-10-31T16:51:11.038Z,100650.06
2022-10-31T16:53:37.227Z,100638.81
2022-10-31T16:56:03.494Z,100625.44
2022-10-31T16:58:29.731Z,100619.91
2022-10-31T17:00:56.031Z,100620.53
2022-10-31T17:03:22.268Z,100616.69
2022-10-31T17:05:48.474Z,100616.47
2022-10-31T17:08:14.716Z,100602.78
2022-10-31T17:10:40.854Z,100610.31
2022-10-31T17:13:14.152Z,100601.88
2022-10-31T17:15:40.366Z,100585.56
2022-10-31T17:18:06.597Z,100581.31
2022-10-31T17:20:32.785Z,100581.50
2022-10-31T17:22:59.240Z,100590.59
2022-10-31T17:25:25.727Z,100603.94
2022-10-31T17:27:51.956Z,100605.81
2022-10-31T17:30:18.145Z,100601.13
2022-10-31T17:32:44.359Z,100602.44
2022-10-31T17:35:10.606Z,100588.41
2022-10-31T17:37:36.788Z,100573.78
2022-10-31T17:40:03.077Z,100577.94
2022-10-31T17:42:29.262Z,100584.50
2022-10-31T17:44:55.460Z,100583.19
2022-10-31T17:47:21.671Z,100582.06
2022-10-31T17:49:47.862Z,100569.41
2022-10-31T17:52:14.050Z,100576.63
2022-10-31T17:54:40.216Z,100585.81
2022-10-31T17:57:06.446Z,100598.53
2022-10-31T17:59:32.627Z,100592.38
2022-10-31T18:01:58.994Z,100583.38
2022-10-31T18:04:25.302Z,100612.19
2022-10-31T18:06:51.542Z,100632.59
2022-10-31T18:09:17.728Z,100622.75
2022-10-31T18:11:43.939Z,100621.25
2022-10-31T18:14:10.541Z,100609.44
2022-10-31T18:19:02.946Z,100617.78
2022-10-31T18:21:29.129Z,100622.47
2022-10-31T18:23:55.355Z,100633.06
2022-10-31T18:26:21.594Z,100641.06
2022-10-31T18:31:38.358Z,100652.22
2022-10-31T18:34:04.590Z,100643.13
2022-10-31T18:36:30.819Z,100649.03
2022-10-31T18:38:57.040Z,100660.09
2022-10-31T18:41:23.235Z,100635.03
2022-10-31T18:46:35.313Z,100632.22
2022-10-31T18:49:01.495Z,100620.50
2022-10-31T18:51:27.696Z,100626.84
2022-10-31T18:53:53.889Z,100615.88
2022-10-31T18:56:20.234Z,100609.81
2022-10-31T18:58:46.450Z,100626.75
2022-10-31T19:01:12.779Z,100629.66
2022-10-31T19:03:39.112Z,100622.03
2022-10-31T19:06:05.529Z,100616.97
2022-10-31T19:08:31.740Z,100629.19
2022-10-31T19:10:57.980Z,100634.78
2022-10-31T19:13:24.170Z,100638.34
2022-10-31T19:15:50.366Z,100628.19
2022-10-31T19:18:16.578Z,100625.56
2022-10-31T19:20:42.755Z,100633.00
2022-10-31T19:23:08.975Z,100629.19
2022-10-31T19:25:35.223Z,100618.13
2022-10-31T19:28:01.610Z,100630.81
2022-10-31T19:30:28.037Z,100633.44
2022-10-31T19:32:54.217Z,100616.16
2022-10-31T19:35:20.457Z,100613.44
2022-10-31T19:37:46.871Z,100615.50
2022-10-31T19:40:13.086Z,100617.72
2022-10-31T19:42:39.329Z,100614.16
2022-10-31T19:45:05.520Z,100628.59
2022-10-31T19:47:31.765Z,100631.94
2022-10-31T19:49:57.992Z,100627.91
2022-10-31T19:52:24.230Z,100632.09
2022-10-31T19:54:50.394Z,100640.19
2022-10-31T19:57:17.268Z,100653.75
2022-10-31T19:59:44.746Z,100652.22
2022-10-31T20:02:10.986Z,100657.88
2022-10-31T20:04:37.240Z,100658.13
2022-10-31T20:07:03.558Z,100656.03
2022-10-31T20:09:29.792Z,100652.31
2022-10-31T20:12:06.551Z,100650.53
2022-10-31T20:14:33.870Z,100660.56
2022-10-31T20:17:00.133Z,100650.34
2022-10-31T20:19:26.348Z,100660.22
2022-10-31T20:21:52.691Z,100667.66
2022-10-31T20:24:19.112Z,100676.03
2022-10-31T20:26:45.409Z,100683.19
2022-10-31T20:29:11.655Z,100683.78
2022-10-31T20:31:37.904Z,100680.38
2022-10-31T20:34:04.131Z,100680.72
2022-10-31T20:36:30.474Z,100660.69
2022-10-31T20:39:16.682Z,100671.69
2022-10-31T20:41:44.741Z,100667.56
2022-10-31T20:44:10.954Z,100659.03
2022-10-31T20:46:37.147Z,100662.50
2022-10-31T20:49:03.331Z,100657.34
2022-10-31T20:51:29.497Z,100668.56
2022-10-31T20:53:55.676Z,100673.03
2022-10-31T20:56:21.857Z,100654.03
2022-10-31T20:58:47.976Z,100660.25
2022-10-31T21:01:14.206Z,100659.66
2022-10-31T21:03:40.405Z,100657.03
2022-10-31T21:06:07.039Z,100658.81
2022-10-31T21:08:33.667Z,100657.97
2022-10-31T21:10:59.974Z,100651.63
2022-10-31T21:13:26.152Z,100653.03
2022-10-31T21:18:50.444Z,100634.25
2022-10-31T21:21:16.593Z,100629.84
2022-10-31T21:23:42.745Z,100622.75
2022-10-31T21:26:08.942Z,100629.09
2022-10-31T21:28:35.082Z,100630.09
2022-10-31T21:31:01.256Z,100633.63
2022-10-31T21:33:27.556Z,100634.31
2022-10-31T21:35:53.784Z,100647.50
2022-10-31T21:38:20.065Z,100643.56
2022-10-31T21:40:46.348Z,100647.66
2022-10-31T21:43:12.636Z,100637.81
2022-10-31T21:45:41.246Z,100630.19
2022-10-31T21:48:08.472Z,100631.44
2022-10-31T21:50:34.635Z,100639.34
2022-10-31T21:53:01.042Z,100637.50
2022-10-31T21:55:27.354Z,100625.81
2022-10-31T21:57:53.552Z,100634.94
2022-10-31T22:00:19.708Z,100634.00
2022-10-31T22:02:45.890Z,100630.56
2022-10-31T22:05:12.037Z,100640.25
2022-10-31T22:07:38.222Z,100641.94
2022-10-31T22:10:04.391Z,100640.19
2022-10-31T22:12:30.512Z,100642.88
2022-10-31T22:14:56.666Z,100643.13
2022-10-31T22:17:22.845Z,100645.97
2022-10-31T22:19:48.959Z,100639.13
2022-10-31T22:22:15.080Z,100633.97
2022-10-31T22:24:41.299Z,100631.38
2022-10-31T22:27:07.447Z,100632.19
2022-10-31T22:29:33.800Z,100628.75
2022-10-31T22:32:02.004Z,100619.81
2022-10-31T22:34:28.409Z,100630.09
2022-10-31T22:36:54.551Z,100628.88
2022-10-31T22:39:21.711Z,100620.72
2022-10-31T22:41:47.855Z,100620.56
2022-10-31T22:44:14.003Z,100607.31
2022-10-31T22:46:40.155Z,100618.63
2022-10-31T22:49:06.454Z,100625.63
2022-10-31T22:51:32.804Z,100634.16
2022-10-31T22:53:58.927Z,100628.00
2022-10-31T22:56:25.087Z,100629.78
2022-10-31T22:58:51.368Z,100626.31
2022-10-31T23:01:17.588Z,100622.75
2022-10-31T23:03:43.801Z,100615.59
2022-10-31T23:06:09.975Z,100617.34
2022-10-31T23:08:37.193Z,100622.38
2022-10-31T23:11:03.345Z,100624.81
2022-10-31T23:13:29.491Z,100633.28
2022-10-31T23:15:55.779Z,100626.28
2022-10-31T23:18:47.945Z,100612.34
2022-10-31T23:21:08.191Z,100615.03
2022-10-31T23:23:34.387Z,100617.56
2022-10-31T23:26:00.554Z,100617.41
2022-10-31T23:28:27.047Z,100623.31
2022-10-31T23:30:53.186Z,100627.53
2022-10-31T23:33:19.331Z,100632.78
2022-10-31T23:35:45.496Z,100630.94
2022-10-31T23:38:11.620Z,100622.16
2022-10-31T23:40:37.979Z,100622.16
2022-10-31T23:43:04.118Z,100619.47
2022-10-31T23:45:30.250Z,100617.66
2022-10-31T23:47:56.368Z,100616.75
2022-10-31T23:50:22.543Z,100620.28
2022-10-31T23:52:48.673Z,100600.09
2022-10-31T23:55:14.804Z,100598.34
2022-10-31T23:57:40.980Z,100594.81
